sensor_id;sensor_type;location;lat;lon;timestamp;pressure;altitude;pressure_sealevel;temperature;humidity
42415;BME280;28058;46.344;17.786;2023-03-04T00:00:42;118336.50;;;-144.97;100.00
42415;BME280;28058;46.344;17.786;2023-03-04T00:03:11;118336.50;;;-144.97;100.00
42415;BME280;28058;46.344;17.786;2023-03-04T00:05:41;118336.50;;;-144.97;100.00
42415;BME280;28058;46.344;17.786;2023-03-04T00:08:07;118336.50;;;-144.97;100.00
42415;BME280;28058;46.344;17.786;2023-03-04T00:10:34;118336.50;;;-144.97;100.00
42415;BME280;28058;46.344;17.786;2023-03-04T00:13:00;118336.50;;;-144.97;100.00
42415;BME280;28058;46.344;17.786;2023-03-04T00:15:27;118336.50;;;-144.97;100.00
42415;BME280;28058;46.344;17.786;2023-03-04T00:17:54;118336.50;;;-144.97;100.00
42415;BME280;28058;46.344;17.786;2023-03-04T00:20:21;118336.50;;;-144.97;100.00
42415;BME280;28058;46.344;17.786;2023-03-04T00:22:47;118336.50;;;-144.97;100.00
42415;BME280;28058;46.344;17.786;2023-03-04T00:25:14;118336.50;;;-144.97;100.00
42415;BME280;28058;46.344;17.786;2023-03-04T00:27:41;118336.50;;;-144.97;100.00
42415;BME280;28058;46.344;17.786;2023-03-04T00:30:07;118336.50;;;-144.97;100.00
42415;BME280;28058;46.344;17.786;2023-03-04T00:32:34;118336.50;;;-144.97;100.00
42415;BME280;28058;46.344;17.786;2023-03-04T00:35:01;118336.50;;;-144.97;100.00
42415;BME280;28058;46.344;17.786;2023-03-04T00:37:27;118336.50;;;-144.97;100.00
42415;BME280;28058;46.344;17.786;2023-03-04T00:39:54;118336.50;;;-144.97;100.00
42415;BME280;28058;46.344;17.786;2023-03-04T00:42:21;118336.50;;;-144.97;100.00
42415;BME280;28058;46.344;17.786;2023-03-04T00:44:47;118336.50;;;-144.97;100.00
42415;BME280;28058;46.344;17.786;2023-03-04T00:47:15;118336.50;;;-144.97;100.00
42415;BME280;28058;46.344;17.786;2023-03-04T00:49:41;118336.50;;;-144.97;100.00
42415;BME280;28058;46.344;17.786;2023-03-04T00:52:08;118336.50;;;-144.97;100.00
42415;BME280;28058;46.344;17.786;2023-03-04T00:54:35;118336.50;;;-144.97;100.00
42415;BME280;28058;46.344;17.786;2023-03-04T00:57:02;118336.50;;;-144.97;100.00
42415;BME280;28058;46.344;17.786;2023-03-04T00:59:28;118336.50;;;-144.97;100.00
42415;BME280;28058;46.344;17.786;2023-03-04T01:01:55;118336.50;;;-144.97;100.00
42415;BME280;28058;46.344;17.786;2023-03-04T01:04:22;118336.50;;;-144.97;100.00
42415;BME280;28058;46.344;17.786;2023-03-04T01:06:48;118336.50;;;-144.97;100.00
42415;BME280;28058;46.344;17.786;2023-03-04T01:09:15;118336.50;;;-144.97;100.00
42415;BME280;28058;46.344;17.786;2023-03-04T01:11:42;118336.50;;;-144.97;100.00
42415;BME280;28058;46.344;17.786;2023-03-04T01:14:08;118336.50;;;-144.97;100.00
42415;BME280;28058;46.344;17.786;2023-03-04T01:16:35;118336.50;;;-144.97;100.00
42415;BME280;28058;46.344;17.786;2023-03-04T01:19:02;118336.50;;;-144.97;100.00
42415;BME280;28058;46.344;17.786;2023-03-04T01:21:29;118336.50;;;-144.97;100.00
42415;BME280;28058;46.344;17.786;2023-03-04T01:23:55;118336.50;;;-144.97;100.00
42415;BME280;28058;46.344;17.786;2023-03-04T01:26:22;118336.50;;;-144.97;100.00
42415;BME280;28058;46.344;17.786;2023-03-04T01:28:49;118336.50;;;-144.97;100.00
42415;BME280;28058;46.344;17.786;2023-03-04T01:31:15;118336.50;;;-144.97;100.00
42415;BME280;28058;46.344;17.786;2023-03-04T01:33:42;118336.50;;;-144.97;100.00
42415;BME280;28058;46.344;17.786;2023-03-04T01:36:09;118336.50;;;-144.97;100.00
42415;BME280;28058;46.344;17.786;2023-03-04T01:38:36;118336.50;;;-144.97;100.00
42415;BME280;28058;46.344;17.786;2023-03-04T01:41:02;118336.50;;;-144.97;100.00
42415;BME280;28058;46.344;17.786;2023-03-04T01:43:29;118336.50;;;-144.97;100.00
42415;BME280;28058;46.344;17.786;2023-03-04T01:45:57;118336.50;;;-144.97;100.00
42415;BME280;28058;46.344;17.786;2023-03-04T01:48:25;118336.50;;;-144.97;100.00
42415;BME280;28058;46.344;17.786;2023-03-04T01:50:52;118336.50;;;-144.97;100.00
42415;BME280;28058;46.344;17.786;2023-03-04T01:53:21;118336.50;;;-144.97;100.00
42415;BME280;28058;46.344;17.786;2023-03-04T01:55:49;118336.50;;;-144.97;100.00
42415;BME280;28058;46.344;17.786;2023-03-04T01:58:17;118336.50;;;-144.97;100.00
42415;BME280;28058;46.344;17.786;2023-03-04T02:00:44;118336.50;;;-144.97;100.00
42415;BME280;28058;46.344;17.786;2023-03-04T02:03:11;118336.50;;;-144.97;100.00
42415;BME280;28058;46.344;17.786;2023-03-04T02:05:40;118336.50;;;-144.97;100.00
42415;BME280;28058;46.344;17.786;2023-03-04T02:08:08;118336.50;;;-144.97;100.00
42415;BME280;28058;46.344;17.786;2023-03-04T02:10:35;118336.50;;;-144.97;100.00
42415;BME280;28058;46.344;17.786;2023-03-04T02:13:02;118336.50;;;-144.97;100.00
42415;BME280;28058;46.344;17.786;2023-03-04T02:15:29;118336.50;;;-144.97;100.00
42415;BME280;28058;46.344;17.786;2023-03-04T02:17:56;118336.50;;;-144.97;100.00
42415;BME280;28058;46.344;17.786;2023-03-04T02:20:30;118336.50;;;-144.97;100.00
42415;BME280;28058;46.344;17.786;2023-03-04T02:23:13;118336.50;;;-144.97;100.00
42415;BME280;28058;46.344;17.786;2023-03-04T02:28:26;118336.50;;;-144.97;100.00
42415;BME280;28058;46.344;17.786;2023-03-04T02:30:53;118336.50;;;-144.97;100.00
42415;BME280;28058;46.344;17.786;2023-03-04T02:33:19;118336.50;;;-144.97;100.00
42415;BME280;28058;46.344;17.786;2023-03-04T02:35:46;118336.50;;;-144.97;100.00
42415;BME280;28058;46.344;17.786;2023-03-04T02:38:13;118336.50;;;-144.97;100.00
42415;BME280;28058;46.344;17.786;2023-03-04T02:40:40;118336.50;;;-144.97;100.00
42415;BME280;28058;46.344;17.786;2023-03-04T02:43:09;118336.50;;;-144.97;100.00
42415;BME280;28058;46.344;17.786;2023-03-04T02:48:06;118336.50;;;-144.97;100.00
42415;BME280;28058;46.344;17.786;2023-03-04T02:50:35;118336.50;;;-144.97;100.00
42415;BME280;28058;46.344;17.786;2023-03-04T02:53:02;118336.50;;;-144.97;100.00
42415;BME280;28058;46.344;17.786;2023-03-04T02:55:29;118336.50;;;-144.97;100.00
42415;BME280;28058;46.344;17.786;2023-03-04T02:57:56;118336.50;;;-144.97;100.00
42415;BME280;28058;46.344;17.786;2023-03-04T03:00:22;118336.50;;;-144.97;100.00
42415;BME280;28058;46.344;17.786;2023-03-04T03:02:49;118336.50;;;-144.97;100.00
42415;BME280;28058;46.344;17.786;2023-03-04T03:05:16;118336.50;;;-144.97;100.00
42415;BME280;28058;46.344;17.786;2023-03-04T03:07:43;118336.50;;;-144.97;100.00
42415;BME280;28058;46.344;17.786;2023-03-04T03:10:10;118336.50;;;-144.97;100.00
42415;BME280;28058;46.344;17.786;2023-03-04T03:12:36;118336.50;;;-144.97;100.00
42415;BME280;28058;46.344;17.786;2023-03-04T03:15:03;118336.50;;;-144.97;100.00
42415;BME280;28058;46.344;17.786;2023-03-04T03:17:30;118336.50;;;-144.97;100.00
42415;BME280;28058;46.344;17.786;2023-03-04T03:19:56;118336.50;;;-144.97;100.00
42415;BME280;28058;46.344;17.786;2023-03-04T03:22:23;118336.50;;;-144.97;100.00
42415;BME280;28058;46.344;17.786;2023-03-04T03:24:50;118336.50;;;-144.97;100.00
42415;BME280;28058;46.344;17.786;2023-03-04T03:27:16;118336.50;;;-144.97;100.00
42415;BME280;28058;46.344;17.786;2023-03-04T03:29:43;118336.50;;;-144.97;100.00
42415;BME280;28058;46.344;17.786;2023-03-04T03:32:10;118336.50;;;-144.97;100.00
42415;BME280;28058;46.344;17.786;2023-03-04T03:34:36;118336.50;;;-144.97;100.00
42415;BME280;28058;46.344;17.786;2023-03-04T03:37:03;118336.50;;;-144.97;100.00
42415;BME280;28058;46.344;17.786;2023-03-04T03:39:29;118336.50;;;-144.97;100.00
42415;BME280;28058;46.344;17.786;2023-03-04T03:41:56;118336.50;;;-144.97;100.00
42415;BME280;28058;46.344;17.786;2023-03-04T03:44:23;118336.50;;;-144.97;100.00
42415;BME280;28058;46.344;17.786;2023-03-04T03:46:49;118336.50;;;-144.97;100.00
42415;BME280;28058;46.344;17.786;2023-03-04T03:49:16;118336.50;;;-144.97;100.00
42415;BME280;28058;46.344;17.786;2023-03-04T03:51:43;118336.50;;;-144.97;100.00
42415;BME280;28058;46.344;17.786;2023-03-04T03:54:09;118336.50;;;-144.97;100.00
42415;BME280;28058;46.344;17.786;2023-03-04T03:56:36;118336.50;;;-144.97;100.00
42415;BME280;28058;46.344;17.786;2023-03-04T03:59:03;118336.50;;;-144.97;100.00
42415;BME280;28058;46.344;17.786;2023-03-04T04:01:29;118336.50;;;-144.97;100.00
42415;BME280;28058;46.344;17.786;2023-03-04T04:03:56;118336.50;;;-144.97;100.00
42415;BME280;28058;46.344;17.786;2023-03-04T04:06:23;118336.50;;;-144.97;100.00
42415;BME280;28058;46.344;17.786;2023-03-04T04:08:49;118336.50;;;-144.97;100.00
42415;BME280;28058;46.344;17.786;2023-03-04T04:11:16;118336.50;;;-144.97;100.00
42415;BME280;28058;46.344;17.786;2023-03-04T04:13:43;118336.50;;;-144.97;100.00
42415;BME280;28058;46.344;17.786;2023-03-04T04:16:09;118336.50;;;-144.97;100.00
42415;BME280;28058;46.344;17.786;2023-03-04T04:18:36;118336.50;;;-144.97;100.00
42415;BME280;28058;46.344;17.786;2023-03-04T04:21:03;118336.50;;;-144.97;100.00
42415;BME280;28058;46.344;17.786;2023-03-04T04:23:30;118336.50;;;-144.97;100.00
42415;BME280;28058;46.344;17.786;2023-03-04T04:25:57;118336.50;;;-144.97;100.00
42415;BME280;28058;46.344;17.786;2023-03-04T04:28:24;118336.50;;;-144.97;100.00
42415;BME280;28058;46.344;17.786;2023-03-04T04:30:50;118336.50;;;-144.97;100.00
42415;BME280;28058;46.344;17.786;2023-03-04T04:33:17;118336.50;;;-144.97;100.00
42415;BME280;28058;46.344;17.786;2023-03-04T04:35:44;118336.50;;;-144.97;100.00
42415;BME280;28058;46.344;17.786;2023-03-04T04:38:10;118336.50;;;-144.97;100.00
42415;BME280;28058;46.344;17.786;2023-03-04T04:40:37;118336.50;;;-144.97;100.00
42415;BME280;28058;46.344;17.786;2023-03-04T04:43:04;118336.50;;;-144.97;100.00
42415;BME280;28058;46.344;17.786;2023-03-04T04:45:31;118336.50;;;-144.97;100.00
42415;BME280;28058;46.344;17.786;2023-03-04T04:47:57;118336.50;;;-144.97;100.00
42415;BME280;28058;46.344;17.786;2023-03-04T04:50:24;118336.50;;;-144.97;100.00
42415;BME280;28058;46.344;17.786;2023-03-04T04:52:51;118336.50;;;-144.97;100.00
42415;BME280;28058;46.344;17.786;2023-03-04T04:55:18;118336.50;;;-144.97;100.00
42415;BME280;28058;46.344;17.786;2023-03-04T04:57:44;118336.50;;;-144.97;100.00
42415;BME280;28058;46.344;17.786;2023-03-04T05:00:11;118336.50;;;-144.97;100.00
42415;BME280;28058;46.344;17.786;2023-03-04T05:02:38;118336.50;;;-144.97;100.00
42415;BME280;28058;46.344;17.786;2023-03-04T05:05:05;118336.50;;;-144.97;100.00
42415;BME280;28058;46.344;17.786;2023-03-04T05:07:32;118336.50;;;-144.97;100.00
42415;BME280;28058;46.344;17.786;2023-03-04T05:09:59;118336.50;;;-144.97;100.00
42415;BME280;28058;46.344;17.786;2023-03-04T05:12:26;118336.50;;;-144.97;100.00
42415;BME280;28058;46.344;17.786;2023-03-04T05:14:52;118336.50;;;-144.97;100.00
42415;BME280;28058;46.344;17.786;2023-03-04T05:17:19;118336.50;;;-144.97;100.00
42415;BME280;28058;46.344;17.786;2023-03-04T05:19:49;118336.50;;;-144.97;100.00
42415;BME280;28058;46.344;17.786;2023-03-04T05:22:15;118336.50;;;-144.97;100.00
42415;BME280;28058;46.344;17.786;2023-03-04T05:24:42;118336.50;;;-144.97;100.00
42415;BME280;28058;46.344;17.786;2023-03-04T05:27:09;118336.50;;;-144.97;100.00
42415;BME280;28058;46.344;17.786;2023-03-04T05:29:35;118336.50;;;-144.97;100.00
42415;BME280;28058;46.344;17.786;2023-03-04T05:32:02;118336.50;;;-144.97;100.00
42415;BME280;28058;46.344;17.786;2023-03-04T05:34:29;118336.50;;;-144.97;100.00
42415;BME280;28058;46.344;17.786;2023-03-04T05:36:55;118336.50;;;-144.97;100.00
42415;BME280;28058;46.344;17.786;2023-03-04T05:39:22;118336.50;;;-144.97;100.00
42415;BME280;28058;46.344;17.786;2023-03-04T05:41:48;118336.50;;;-144.97;100.00
42415;BME280;28058;46.344;17.786;2023-03-04T05:44:15;118336.50;;;-144.97;100.00
42415;BME280;28058;46.344;17.786;2023-03-04T05:46:42;118336.50;;;-144.97;100.00
42415;BME280;28058;46.344;17.786;2023-03-04T05:49:08;118336.50;;;-144.97;100.00
42415;BME280;28058;46.344;17.786;2023-03-04T05:51:35;118336.50;;;-144.97;100.00
42415;BME280;28058;46.344;17.786;2023-03-04T05:54:02;118336.50;;;-144.97;100.00
42415;BME280;28058;46.344;17.786;2023-03-04T05:56:28;118336.50;;;-144.97;100.00
42415;BME280;28058;46.344;17.786;2023-03-04T05:58:56;118336.50;;;-144.97;100.00
42415;BME280;28058;46.344;17.786;2023-03-04T06:01:23;118336.50;;;-144.97;100.00
42415;BME280;28058;46.344;17.786;2023-03-04T06:03:50;118336.50;;;-144.97;100.00
42415;BME280;28058;46.344;17.786;2023-03-04T06:06:16;118336.50;;;-144.97;100.00
42415;BME280;28058;46.344;17.786;2023-03-04T06:08:43;118336.50;;;-144.97;100.00
42415;BME280;28058;46.344;17.786;2023-03-04T06:11:10;118336.50;;;-144.97;100.00
42415;BME280;28058;46.344;17.786;2023-03-04T06:13:37;118336.50;;;-144.97;100.00
42415;BME280;28058;46.344;17.786;2023-03-04T06:16:04;118336.50;;;-144.97;100.00
42415;BME280;28058;46.344;17.786;2023-03-04T06:18:31;118336.50;;;-144.97;100.00
42415;BME280;28058;46.344;17.786;2023-03-04T06:20:59;118336.50;;;-144.97;100.00
42415;BME280;28058;46.344;17.786;2023-03-04T06:23:26;118336.50;;;-144.97;100.00
42415;BME280;28058;46.344;17.786;2023-03-04T06:25:53;118336.50;;;-144.97;100.00
42415;BME280;28058;46.344;17.786;2023-03-04T06:28:20;118336.50;;;-144.97;100.00
42415;BME280;28058;46.344;17.786;2023-03-04T06:30:47;118336.50;;;-144.97;100.00
42415;BME280;28058;46.344;17.786;2023-03-04T06:33:15;118336.50;;;-144.97;100.00
42415;BME280;28058;46.344;17.786;2023-03-04T06:35:41;118336.50;;;-144.97;100.00
42415;BME280;28058;46.344;17.786;2023-03-04T06:38:08;118336.50;;;-144.97;100.00
42415;BME280;28058;46.344;17.786;2023-03-04T06:40:35;118336.50;;;-144.97;100.00
42415;BME280;28058;46.344;17.786;2023-03-04T06:43:01;118336.50;;;-144.97;100.00
42415;BME280;28058;46.344;17.786;2023-03-04T06:45:28;118336.50;;;-144.97;100.00
42415;BME280;28058;46.344;17.786;2023-03-04T06:47:55;118336.50;;;-144.97;100.00
42415;BME280;28058;46.344;17.786;2023-03-04T06:50:21;118336.50;;;-144.97;100.00
42415;BME280;28058;46.344;17.786;2023-03-04T06:52:48;118336.50;;;-144.97;100.00
42415;BME280;28058;46.344;17.786;2023-03-04T06:55:15;118336.50;;;-144.97;100.00
42415;BME280;28058;46.344;17.786;2023-03-04T06:57:41;118336.50;;;-144.97;100.00
42415;BME280;28058;46.344;17.786;2023-03-04T07:00:08;118336.50;;;-144.97;100.00
42415;BME280;28058;46.344;17.786;2023-03-04T07:02:35;118336.50;;;-144.97;100.00
42415;BME280;28058;46.344;17.786;2023-03-04T07:05:02;118336.50;;;-144.97;100.00
42415;BME280;28058;46.344;17.786;2023-03-04T07:07:28;118336.50;;;-144.97;100.00
42415;BME280;28058;46.344;17.786;2023-03-04T07:09:55;118336.50;;;-144.97;100.00
42415;BME280;28058;46.344;17.786;2023-03-04T07:12:22;118336.50;;;-144.97;100.00
42415;BME280;28058;46.344;17.786;2023-03-04T07:14:48;118336.50;;;-144.97;100.00
42415;BME280;28058;46.344;17.786;2023-03-04T07:17:15;118336.50;;;-144.97;100.00
42415;BME280;28058;46.344;17.786;2023-03-04T07:19:42;118336.50;;;-144.97;100.00
42415;BME280;28058;46.344;17.786;2023-03-04T07:22:10;118336.50;;;-144.97;100.00
42415;BME280;28058;46.344;17.786;2023-03-04T07:24:38;118336.50;;;-144.97;100.00
42415;BME280;28058;46.344;17.786;2023-03-04T07:27:04;118336.50;;;-144.97;100.00
42415;BME280;28058;46.344;17.786;2023-03-04T07:29:31;118336.50;;;-144.97;100.00
42415;BME280;28058;46.344;17.786;2023-03-04T07:31:58;118336.50;;;-144.97;100.00
42415;BME280;28058;46.344;17.786;2023-03-04T07:34:25;118336.50;;;-144.97;100.00
42415;BME280;28058;46.344;17.786;2023-03-04T07:36:51;118336.50;;;-144.97;100.00
42415;BME280;28058;46.344;17.786;2023-03-04T07:39:18;118336.50;;;-144.97;100.00
42415;BME280;28058;46.344;17.786;2023-03-04T07:41:45;118336.50;;;-144.97;100.00
42415;BME280;28058;46.344;17.786;2023-03-04T07:44:12;118336.50;;;-144.97;100.00
42415;BME280;28058;46.344;17.786;2023-03-04T07:46:39;118336.50;;;-144.97;100.00
42415;BME280;28058;46.344;17.786;2023-03-04T07:49:05;118336.50;;;-144.97;100.00
42415;BME280;28058;46.344;17.786;2023-03-04T07:51:32;118336.50;;;-144.97;100.00
42415;BME280;28058;46.344;17.786;2023-03-04T07:54:00;118336.50;;;-144.97;100.00
42415;BME280;28058;46.344;17.786;2023-03-04T07:56:28;118336.50;;;-144.97;100.00
42415;BME280;28058;46.344;17.786;2023-03-04T07:58:55;118336.50;;;-144.97;90.85
42415;BME280;28058;46.344;17.786;2023-03-04T08:01:24;118336.50;;;-144.97;85.23
42415;BME280;28058;46.344;17.786;2023-03-04T08:03:51;118336.50;;;-144.97;78.09
42415;BME280;28058;46.344;17.786;2023-03-04T08:06:19;118336.50;;;-144.97;73.41
42415;BME280;28058;46.344;17.786;2023-03-04T08:08:46;118336.50;;;-144.97;73.32
42415;BME280;28058;46.344;17.786;2023-03-04T08:11:22;118336.50;;;-144.97;67.84
42415;BME280;28058;46.344;17.786;2023-03-04T08:13:49;118336.50;;;-144.97;63.67
42415;BME280;28058;46.344;17.786;2023-03-04T08:16:17;118336.50;;;-144.97;62.71
42415;BME280;28058;46.344;17.786;2023-03-04T08:18:45;118336.50;;;-144.97;58.55
42415;BME280;28058;46.344;17.786;2023-03-04T08:21:14;118336.50;;;-144.97;57.12
42415;BME280;28058;46.344;17.786;2023-03-04T08:23:41;118336.50;;;-144.97;57.21
42415;BME280;28058;46.344;17.786;2023-03-04T08:26:09;118336.50;;;-144.97;56.54
42415;BME280;28058;46.344;17.786;2023-03-04T08:28:36;118336.50;;;-144.97;55.98
42415;BME280;28058;46.344;17.786;2023-03-04T08:31:03;118336.50;;;-144.97;53.33
42415;BME280;28058;46.344;17.786;2023-03-04T08:33:30;118336.50;;;-144.97;50.61
42415;BME280;28058;46.344;17.786;2023-03-04T08:35:57;118336.50;;;-144.97;50.58
42415;BME280;28058;46.344;17.786;2023-03-04T08:38:24;118336.50;;;-144.97;47.53
42415;BME280;28058;46.344;17.786;2023-03-04T08:40:52;118336.50;;;-144.97;48.68
42415;BME280;28058;46.344;17.786;2023-03-04T08:43:18;118336.50;;;-144.97;47.15
42415;BME280;28058;46.344;17.786;2023-03-04T08:45:45;118336.50;;;-144.97;46.94
42415;BME280;28058;46.344;17.786;2023-03-04T08:48:12;118336.50;;;-144.97;45.11
42415;BME280;28058;46.344;17.786;2023-03-04T08:50:39;118336.50;;;-144.97;44.58
42415;BME280;28058;46.344;17.786;2023-03-04T08:53:05;118336.50;;;-144.97;43.26
42415;BME280;28058;46.344;17.786;2023-03-04T08:55:33;118336.50;;;-144.97;44.43
42415;BME280;28058;46.344;17.786;2023-03-04T08:58:00;118336.50;;;-144.97;43.71
42415;BME280;28058;46.344;17.786;2023-03-04T09:00:27;118336.50;;;-144.97;42.23
42415;BME280;28058;46.344;17.786;2023-03-04T09:02:53;118336.50;;;-144.97;41.27
42415;BME280;28058;46.344;17.786;2023-03-04T09:05:21;118336.50;;;-144.97;40.58
42415;BME280;28058;46.344;17.786;2023-03-04T09:07:47;118336.50;;;-144.97;39.26
42415;BME280;28058;46.344;17.786;2023-03-04T09:10:14;118336.50;;;-144.97;40.29
42415;BME280;28058;46.344;17.786;2023-03-04T09:12:41;118336.50;;;-144.97;42.38
42415;BME280;28058;46.344;17.786;2023-03-04T09:15:08;118336.50;;;-144.97;42.76
42415;BME280;28058;46.344;17.786;2023-03-04T09:17:37;118336.50;;;-144.97;46.44
42415;BME280;28058;46.344;17.786;2023-03-04T09:20:04;118336.50;;;-144.97;45.82
42415;BME280;28058;46.344;17.786;2023-03-04T09:22:31;118336.50;;;-144.97;47.94
42415;BME280;28058;46.344;17.786;2023-03-04T09:24:58;118336.50;;;-144.97;47.56
42415;BME280;28058;46.344;17.786;2023-03-04T09:27:24;118336.50;;;-144.97;49.27
42415;BME280;28058;46.344;17.786;2023-03-04T09:29:51;118336.50;;;-144.97;50.92
42415;BME280;28058;46.344;17.786;2023-03-04T09:32:18;118336.50;;;-144.97;56.57
42415;BME280;28058;46.344;17.786;2023-03-04T09:34:45;118336.50;;;-144.97;57.06
42415;BME280;28058;46.344;17.786;2023-03-04T09:37:11;118336.50;;;-144.97;56.17
42415;BME280;28058;46.344;17.786;2023-03-04T09:39:38;118336.50;;;-144.97;60.09
42415;BME280;28058;46.344;17.786;2023-03-04T09:42:05;118336.50;;;-144.97;61.14
42415;BME280;28058;46.344;17.786;2023-03-04T09:44:33;118336.50;;;-144.97;58.08
42415;BME280;28058;46.344;17.786;2023-03-04T09:47:03;118336.50;;;-144.97;60.85
42415;BME280;28058;46.344;17.786;2023-03-04T09:49:30;118336.50;;;-144.97;58.78
42415;BME280;28058;46.344;17.786;2023-03-04T09:51:59;118336.50;;;-144.97;58.83
42415;BME280;28058;46.344;17.786;2023-03-04T09:59:50;118336.50;;;-144.97;58.18
42415;BME280;28058;46.344;17.786;2023-03-04T10:03:04;118336.50;;;-144.97;60.89
42415;BME280;28058;46.344;17.786;2023-03-04T10:05:15;118336.50;;;-144.97;60.31
42415;BME280;28058;46.344;17.786;2023-03-04T10:07:42;118336.50;;;-144.97;58.06
42415;BME280;28058;46.344;17.786;2023-03-04T10:10:13;118336.50;;;-144.97;62.04
42415;BME280;28058;46.344;17.786;2023-03-04T10:12:43;118336.50;;;-144.97;60.45
42415;BME280;28058;46.344;17.786;2023-03-04T10:17:42;118336.50;;;-144.97;57.88
42415;BME280;28058;46.344;17.786;2023-03-04T10:20:15;118336.50;;;-144.97;57.82
42415;BME280;28058;46.344;17.786;2023-03-04T10:22:45;118336.50;;;-144.97;61.57
42415;BME280;28058;46.344;17.786;2023-03-04T10:27:43;118336.50;;;-144.97;61.84
42415;BME280;28058;46.344;17.786;2023-03-04T10:33:13;118336.50;;;-144.97;60.88
42415;BME280;28058;46.344;17.786;2023-03-04T10:35:42;118336.50;;;-144.97;63.69
42415;BME280;28058;46.344;17.786;2023-03-04T10:38:11;118336.50;;;-144.97;66.13
42415;BME280;28058;46.344;17.786;2023-03-04T10:40:39;118336.50;;;-144.97;62.36
42415;BME280;28058;46.344;17.786;2023-03-04T10:43:12;118336.50;;;-144.97;58.67
42415;BME280;28058;46.344;17.786;2023-03-04T10:45:39;118336.50;;;-144.97;59.55
42415;BME280;28058;46.344;17.786;2023-03-04T10:48:08;118336.50;;;-144.97;60.31
42415;BME280;28058;46.344;17.786;2023-03-04T10:50:42;118336.50;;;-144.97;61.65
42415;BME280;28058;46.344;17.786;2023-03-04T10:53:18;118336.50;;;-144.97;60.63
42415;BME280;28058;46.344;17.786;2023-03-04T10:55:47;118336.50;;;-144.97;60.83
42415;BME280;28058;46.344;17.786;2023-03-04T10:58:14;118336.50;;;-144.97;63.12
42415;BME280;28058;46.344;17.786;2023-03-04T11:00:42;118336.50;;;-144.97;65.47
42415;BME280;28058;46.344;17.786;2023-03-04T11:03:21;118336.50;;;-144.97;62.15
42415;BME280;28058;46.344;17.786;2023-03-04T11:05:48;118336.50;;;-144.97;61.35
42415;BME280;28058;46.344;17.786;2023-03-04T11:08:16;118336.50;;;-144.97;60.96
42415;BME280;28058;46.344;17.786;2023-03-04T11:10:44;118336.50;;;-144.97;64.83
42415;BME280;28058;46.344;17.786;2023-03-04T11:15:54;118336.50;;;-144.97;58.59
42415;BME280;28058;46.344;17.786;2023-03-04T11:18:37;118336.50;;;-144.97;57.96
42415;BME280;28058;46.344;17.786;2023-03-04T11:21:07;118336.50;;;-144.97;55.78
42415;BME280;28058;46.344;17.786;2023-03-04T11:23:46;118336.50;;;-144.97;56.32
42415;BME280;28058;46.344;17.786;2023-03-04T11:26:16;118336.50;;;-144.97;53.07
42415;BME280;28058;46.344;17.786;2023-03-04T11:31:38;118336.50;;;-144.97;53.09
42415;BME280;28058;46.344;17.786;2023-03-04T11:41:55;118336.50;;;-144.97;51.31
42415;BME280;28058;46.344;17.786;2023-03-04T11:44:22;118336.50;;;-144.97;48.16
42415;BME280;28058;46.344;17.786;2023-03-04T11:49:42;118336.50;;;-144.97;49.98
42415;BME280;28058;46.344;17.786;2023-03-04T11:52:21;118336.50;;;-144.97;49.55
42415;BME280;28058;46.344;17.786;2023-03-04T11:55:17;118336.50;;;-144.97;50.63
42415;BME280;28058;46.344;17.786;2023-03-04T12:00:28;118336.50;;;-144.97;50.19
42415;BME280;28058;46.344;17.786;2023-03-04T12:11:04;118336.50;;;-144.97;52.41
42415;BME280;28058;46.344;17.786;2023-03-04T12:16:15;118336.50;;;-144.97;57.70
42415;BME280;28058;46.344;17.786;2023-03-04T12:21:21;118336.50;;;-144.97;47.70
42415;BME280;28058;46.344;17.786;2023-03-04T12:26:31;118336.50;;;-144.97;49.34
42415;BME280;28058;46.344;17.786;2023-03-04T12:29:12;118336.50;;;-144.97;48.94
42415;BME280;28058;46.344;17.786;2023-03-04T12:31:52;118336.50;;;-144.97;51.27
42415;BME280;28058;46.344;17.786;2023-03-04T12:34:32;118336.50;;;-144.97;48.26
42415;BME280;28058;46.344;17.786;2023-03-04T12:37:37;118336.50;;;-144.97;50.14
42415;BME280;28058;46.344;17.786;2023-03-04T12:55:43;118336.50;;;-144.97;50.99
42415;BME280;28058;46.344;17.786;2023-03-04T12:58:26;118336.50;;;-144.97;51.13
42415;BME280;28058;46.344;17.786;2023-03-04T13:01:06;118336.50;;;-144.97;51.38
42415;BME280;28058;46.344;17.786;2023-03-04T13:06:07;118336.50;;;-144.97;52.95
42415;BME280;28058;46.344;17.786;2023-03-04T13:16:31;118336.50;;;-144.97;51.68
42415;BME280;28058;46.344;17.786;2023-03-04T13:18:59;118336.50;;;-144.97;52.67
42415;BME280;28058;46.344;17.786;2023-03-04T13:21:29;118336.50;;;-144.97;54.99
42415;BME280;28058;46.344;17.786;2023-03-04T13:23:57;118336.50;;;-144.97;53.29
42415;BME280;28058;46.344;17.786;2023-03-04T13:26:33;118336.50;;;-144.97;55.54
42415;BME280;28058;46.344;17.786;2023-03-04T13:31:58;118336.50;;;-144.97;52.73
42415;BME280;28058;46.344;17.786;2023-03-04T13:42:40;118336.50;;;-144.97;51.83
42415;BME280;28058;46.344;17.786;2023-03-04T13:47:53;118336.50;;;-144.97;49.47
42415;BME280;28058;46.344;17.786;2023-03-04T13:50:21;118336.50;;;-144.97;50.02
42415;BME280;28058;46.344;17.786;2023-03-04T13:52:48;118336.50;;;-144.97;48.90